createdAt,value
2022-10-12T00:00:26.594Z,0.00
2022-10-12T00:01:26.641Z,0.00
2022-10-12T00:02:26.659Z,0.00
2022-10-12T00:03:26.664Z,0.00
2022-10-12T00:04:26.688Z,0.00
2022-10-12T00:05:26.708Z,0.00
2022-10-12T00:06:26.730Z,0.00
2022-10-12T00:07:26.754Z,0.00
2022-10-12T00:08:26.779Z,0.00
2022-10-12T00:09:26.801Z,0.00
2022-10-12T00:10:26.825Z,0.00
2022-10-12T00:11:26.848Z,0.00
2022-10-12T00:12:26.872Z,0.00
2022-10-12T00:13:26.894Z,0.00
2022-10-12T00:14:26.918Z,0.00
2022-10-12T00:15:26.942Z,0.00
2022-10-12T00:16:26.964Z,0.00
2022-10-12T00:17:26.987Z,0.00
2022-10-12T00:18:27.029Z,0.00
2022-10-12T00:19:27.033Z,0.00
2022-10-12T00:20:27.058Z,0.00
2022-10-12T00:21:27.077Z,0.00
2022-10-12T00:22:27.104Z,0.00
2022-10-12T00:23:27.125Z,0.00
2022-10-12T00:24:27.153Z,0.00
2022-10-12T00:25:27.171Z,0.00
2022-10-12T00:26:27.198Z,0.00
2022-10-12T00:27:27.220Z,0.00
2022-10-12T00:28:27.269Z,0.00
2022-10-12T00:29:27.264Z,0.00
2022-10-12T00:30:27.289Z,0.00
2022-10-12T00:31:27.311Z,0.00
2022-10-12T00:32:27.336Z,0.00
2022-10-12T00:33:27.357Z,0.00
2022-10-12T00:34:27.399Z,0.00
2022-10-12T00:35:27.406Z,0.00
2022-10-12T00:36:27.434Z,0.00
2022-10-12T00:37:27.448Z,0.00
2022-10-12T00:38:27.475Z,0.00
2022-10-12T00:39:27.496Z,0.00
2022-10-12T00:40:27.522Z,0.00
2022-10-12T00:41:27.541Z,0.00
2022-10-12T00:42:27.567Z,0.00
2022-10-12T00:43:27.590Z,0.00
2022-10-12T00:44:27.614Z,0.00
2022-10-12T00:45:27.635Z,0.00
2022-10-12T00:46:27.660Z,0.00
2022-10-12T00:47:27.680Z,0.00
2022-10-12T00:48:27.707Z,0.00
2022-10-12T00:49:27.727Z,0.00
2022-10-12T00:50:27.772Z,0.00
2022-10-12T00:51:27.774Z,0.00
2022-10-12T00:52:27.799Z,0.00
2022-10-12T00:53:27.820Z,0.00
2022-10-12T00:54:27.845Z,0.00
2022-10-12T00:55:27.868Z,0.00
2022-10-12T00:56:27.893Z,0.00
2022-10-12T00:57:27.911Z,0.00
2022-10-12T00:58:27.937Z,0.00
2022-10-12T00:59:27.960Z,0.00
2022-10-12T01:00:27.982Z,0.00
2022-10-12T01:01:28.030Z,0.00
2022-10-12T01:03:28.053Z,0.00
2022-10-12T01:04:28.074Z,0.00
2022-10-12T01:05:28.100Z,0.00
2022-10-12T01:06:28.139Z,0.00
2022-10-12T01:07:28.147Z,0.00
2022-10-12T01:08:28.166Z,0.00
2022-10-12T01:09:28.191Z,0.00
2022-10-12T01:10:28.212Z,0.00
2022-10-12T01:11:28.238Z,0.00
2022-10-12T01:12:28.259Z,0.00
2022-10-12T01:13:28.293Z,0.00
2022-10-12T01:14:28.305Z,0.00
2022-10-12T01:15:28.331Z,0.00
2022-10-12T01:16:28.352Z,0.00
2022-10-12T01:18:28.397Z,0.00
2022-10-12T01:19:28.421Z,0.00
2022-10-12T01:20:28.447Z,0.00
2022-10-12T01:21:28.519Z,0.00
2022-10-12T01:22:28.511Z,0.00
2022-10-12T01:23:28.512Z,0.00
2022-10-12T01:24:28.537Z,0.00
2022-10-12T01:25:28.560Z,0.00
2022-10-12T01:26:28.583Z,0.00
2022-10-12T01:27:28.808Z,0.00
2022-10-12T01:28:28.668Z,0.00
2022-10-12T01:29:29.055Z,0.00
2022-10-12T01:30:28.677Z,0.00
2022-10-12T01:31:32.435Z,0.00
2022-10-12T01:32:28.722Z,0.00
2022-10-12T01:33:28.742Z,0.00
2022-10-12T01:34:28.770Z,0.00
2022-10-12T01:35:28.789Z,0.00
2022-10-12T01:36:28.821Z,0.00
2022-10-12T01:37:28.843Z,0.00
2022-10-12T01:38:28.878Z,0.00
2022-10-12T01:39:28.882Z,0.00
2022-10-12T01:41:28.929Z,0.00
2022-10-12T01:43:29.176Z,0.00
2022-10-12T01:45:29.022Z,0.00
2022-10-12T01:47:29.267Z,0.00
2022-10-12T01:50:29.136Z,0.00
2022-10-12T01:51:29.161Z,0.00
2022-10-12T01:52:29.184Z,0.00
2022-10-12T01:53:29.205Z,0.00
2022-10-12T01:54:29.253Z,0.00
2022-10-12T01:55:29.454Z,0.00
2022-10-12T01:56:29.275Z,0.00
2022-10-12T01:57:29.297Z,0.00
2022-10-12T01:58:29.523Z,0.00
2022-10-12T02:00:29.368Z,0.00
2022-10-12T02:01:29.464Z,0.00
2022-10-12T02:02:29.415Z,0.00
2022-10-12T02:03:29.640Z,0.00
2022-10-12T02:04:29.460Z,0.00
2022-10-12T02:05:29.889Z,0.00
2022-10-12T02:06:29.710Z,0.00
2022-10-12T02:08:29.959Z,0.00
2022-10-12T02:09:29.776Z,0.00
2022-10-12T02:10:29.620Z,0.00
2022-10-12T02:17:03.153Z,0.00
2022-10-12T02:23:32.930Z,0.00
2022-10-12T02:24:29.924Z,0.00
2022-10-12T02:25:29.946Z,0.00
2022-10-12T02:26:29.988Z,0.00
2022-10-12T02:27:29.992Z,0.00
2022-10-12T02:28:30.046Z,0.00
2022-10-12T02:29:30.039Z,0.00
2022-10-12T02:30:30.060Z,0.00
2022-10-12T02:31:30.086Z,0.00
2022-10-12T02:32:30.113Z,0.00
2022-10-12T02:33:30.130Z,0.00
2022-10-12T02:34:30.158Z,0.00
2022-10-12T02:35:30.175Z,0.00
2022-10-12T02:36:30.201Z,0.00
2022-10-12T02:37:30.223Z,0.00
2022-10-12T02:38:30.246Z,0.00
2022-10-12T02:39:30.268Z,0.00
2022-10-12T02:40:30.291Z,0.00
2022-10-12T02:42:03.592Z,0.00
2022-10-12T02:42:41.887Z,0.00
2022-10-12T02:43:30.359Z,0.00
2022-10-12T02:44:30.383Z,0.00
2022-10-12T02:45:30.407Z,0.00
2022-10-12T02:46:30.529Z,0.00
2022-10-12T02:47:30.453Z,0.00
2022-10-12T02:48:30.476Z,0.00
2022-10-12T02:49:30.499Z,0.00
2022-10-12T02:51:30.745Z,0.00
2022-10-12T02:52:30.770Z,0.00
2022-10-12T02:53:30.791Z,0.00
2022-10-12T02:54:30.615Z,0.00
2022-10-12T02:58:30.733Z,0.00
2022-10-12T02:59:30.746Z,0.00
2022-10-12T03:01:31.096Z,0.00
2022-10-12T03:03:30.821Z,0.00
2022-10-12T03:04:30.842Z,0.00
2022-10-12T03:05:30.867Z,0.00
2022-10-12T03:06:30.891Z,0.00
2022-10-12T03:07:30.912Z,0.00
2022-10-12T03:08:30.936Z,0.00
2022-10-12T03:09:30.955Z,0.00
2022-10-12T03:10:30.984Z,0.00
2022-10-12T03:11:31.002Z,0.00
2022-10-12T03:12:31.028Z,0.00
2022-10-12T03:13:31.049Z,0.00
2022-10-12T03:14:31.091Z,0.00
2022-10-12T03:15:31.092Z,0.00
2022-10-12T03:16:31.118Z,0.00
2022-10-12T03:17:31.140Z,0.00
2022-10-12T03:18:31.163Z,0.00
2022-10-12T03:19:31.184Z,0.00
2022-10-12T03:20:31.211Z,0.00
2022-10-12T03:21:31.232Z,0.00
2022-10-12T03:22:31.255Z,0.00
2022-10-12T03:23:31.275Z,0.00
2022-10-12T03:24:31.299Z,0.00
2022-10-12T03:25:31.321Z,0.00
2022-10-12T03:26:31.345Z,0.00
2022-10-12T03:27:31.366Z,0.00
2022-10-12T03:28:31.465Z,0.00
2022-10-12T03:29:31.415Z,0.00
2022-10-12T03:30:31.452Z,0.00
2022-10-12T03:31:31.457Z,0.00
2022-10-12T03:32:31.483Z,0.00
2022-10-12T03:33:31.503Z,0.00
2022-10-12T03:34:31.537Z,0.00
2022-10-12T03:35:31.549Z,0.00
2022-10-12T03:36:31.574Z,0.00
2022-10-12T03:37:31.592Z,0.00
2022-10-12T03:38:31.618Z,0.00
2022-10-12T03:39:31.645Z,0.00
2022-10-12T03:40:31.663Z,0.00
2022-10-12T03:41:31.684Z,0.00
2022-10-12T03:42:31.710Z,0.00
2022-10-12T03:43:31.730Z,0.00
2022-10-12T03:44:31.764Z,0.00
2022-10-12T03:45:31.775Z,0.00
2022-10-12T03:46:31.819Z,0.00
2022-10-12T03:47:31.827Z,0.00
2022-10-12T03:48:31.848Z,0.00
2022-10-12T03:49:31.867Z,0.00
2022-10-12T03:50:31.892Z,0.00
2022-10-12T03:51:31.913Z,0.00
2022-10-12T03:52:31.943Z,0.00
2022-10-12T03:53:31.960Z,0.00
2022-10-12T03:54:31.986Z,0.00
2022-10-12T03:55:32.003Z,0.00
2022-10-12T03:56:32.027Z,0.00
2022-10-12T03:57:32.049Z,0.00
2022-10-12T03:58:32.073Z,0.00
2022-10-12T03:59:32.101Z,0.00
2022-10-12T04:00:32.120Z,0.00
2022-10-12T04:01:32.307Z,0.00
2022-10-12T04:02:32.183Z,0.00
2022-10-12T04:03:32.184Z,0.00
2022-10-12T04:04:32.212Z,0.00
2022-10-12T04:05:32.230Z,0.00
2022-10-12T04:06:32.254Z,0.00
2022-10-12T04:07:32.275Z,0.00
2022-10-12T04:08:32.299Z,0.00
2022-10-12T04:09:32.320Z,0.00
2022-10-12T04:10:32.343Z,0.00
2022-10-12T04:11:32.368Z,0.00
2022-10-12T04:12:32.390Z,0.00
2022-10-12T04:13:32.410Z,0.00
2022-10-12T04:14:32.437Z,0.00
2022-10-12T04:15:32.457Z,0.00
2022-10-12T04:16:32.480Z,0.00
2022-10-12T04:17:32.504Z,0.00
2022-10-12T04:18:32.541Z,0.00
2022-10-12T04:19:32.546Z,0.00
2022-10-12T04:20:32.572Z,0.00
2022-10-12T04:21:32.590Z,0.00
2022-10-12T04:22:32.616Z,0.00
2022-10-12T04:23:32.636Z,0.00
2022-10-12T04:24:32.659Z,0.00
2022-10-12T04:25:32.682Z,0.00
2022-10-12T04:26:32.705Z,0.00
2022-10-12T04:27:32.726Z,0.00
2022-10-12T04:28:32.822Z,0.00
2022-10-12T04:29:32.771Z,0.00
2022-10-12T04:30:32.797Z,0.00
2022-10-12T04:31:32.816Z,0.00
2022-10-12T04:32:32.841Z,0.00
2022-10-12T04:33:32.861Z,0.00
2022-10-12T04:34:32.910Z,0.00
2022-10-12T04:35:32.906Z,0.00
2022-10-12T04:36:32.931Z,0.00
2022-10-12T04:37:32.953Z,0.00
2022-10-12T04:38:32.975Z,0.00
2022-10-12T04:39:32.997Z,0.00
2022-10-12T04:40:33.025Z,0.00
2022-10-12T04:41:33.041Z,0.00
2022-10-12T04:42:33.065Z,0.00
2022-10-12T04:43:33.089Z,0.00
2022-10-12T04:44:33.111Z,0.00
2022-10-12T04:45:33.131Z,0.00
2022-10-12T04:46:33.168Z,0.00
2022-10-12T04:47:33.177Z,0.00
2022-10-12T04:48:33.201Z,0.00
2022-10-12T04:49:33.222Z,0.00
2022-10-12T04:50:33.265Z,0.00
2022-10-12T04:51:33.267Z,0.00
2022-10-12T04:52:33.290Z,0.00
2022-10-12T04:53:33.312Z,0.00
2022-10-12T04:54:33.337Z,0.00
2022-10-12T04:55:33.358Z,0.00
2022-10-12T04:56:33.382Z,0.00
2022-10-12T04:57:33.401Z,0.00
2022-10-12T04:58:33.427Z,0.00
2022-10-12T04:59:33.447Z,0.00
2022-10-12T05:00:33.471Z,0.00
2022-10-12T05:01:33.548Z,0.00
2022-10-12T05:02:33.517Z,0.00
2022-10-12T05:03:35.262Z,0.00
2022-10-12T05:05:33.583Z,0.00
2022-10-12T05:06:33.625Z,0.00
2022-10-12T05:07:33.629Z,0.00
2022-10-12T05:08:33.652Z,0.00
2022-10-12T05:09:33.673Z,0.00
2022-10-12T05:10:33.697Z,0.00
2022-10-12T05:11:33.718Z,0.00
2022-10-12T05:12:33.743Z,0.00
2022-10-12T05:13:33.764Z,0.00
2022-10-12T05:14:36.039Z,0.00
2022-10-12T05:15:33.809Z,0.00
2022-10-12T05:16:33.834Z,0.00
2022-10-12T05:17:33.854Z,0.00
2022-10-12T05:18:33.879Z,4.00
2022-10-12T05:19:33.900Z,4.00
2022-10-12T05:20:33.924Z,0.00
2022-10-12T05:21:33.945Z,4.00
2022-10-12T05:22:33.987Z,4.00
2022-10-12T05:23:33.991Z,4.00
2022-10-12T05:24:34.016Z,4.00
2022-10-12T05:25:34.036Z,4.00
2022-10-12T05:26:34.062Z,4.00
2022-10-12T05:27:34.082Z,8.00
2022-10-12T05:28:39.843Z,8.00
2022-10-12T05:29:34.128Z,12.00
2022-10-12T05:30:34.152Z,16.00
2022-10-12T05:31:34.175Z,16.00
2022-10-12T05:32:34.198Z,20.00
2022-10-12T05:33:34.220Z,24.00
2022-10-12T05:34:34.246Z,28.00
2022-10-12T05:35:34.264Z,32.00
2022-10-12T05:36:34.288Z,40.00
2022-10-12T05:37:34.308Z,48.00
2022-10-12T05:38:34.352Z,56.00
2022-10-12T05:39:34.356Z,64.00
2022-10-12T05:40:34.380Z,76.00
2022-10-12T05:41:34.400Z,84.00
2022-10-12T05:42:34.425Z,96.00
2022-10-12T05:43:34.445Z,108.00
2022-10-12T05:44:34.471Z,124.00
2022-10-12T05:45:34.496Z,136.00
2022-10-12T05:46:34.516Z,152.00
2022-10-12T05:47:34.616Z,172.00
2022-10-12T05:48:34.562Z,192.00
2022-10-12T05:49:34.583Z,212.00
2022-10-12T05:50:34.647Z,232.00
2022-10-12T05:51:34.629Z,256.00
2022-10-12T05:52:34.685Z,280.00
2022-10-12T05:53:34.673Z,308.00
2022-10-12T05:54:34.716Z,332.00
2022-10-12T05:55:34.719Z,364.00
2022-10-12T05:56:34.745Z,392.00
2022-10-12T05:57:34.765Z,424.00
2022-10-12T05:58:34.788Z,460.00
2022-10-12T05:59:34.810Z,496.00
2022-10-12T06:00:34.838Z,532.00
2022-10-12T06:01:34.929Z,576.00
2022-10-12T06:02:35.045Z,624.00
2022-10-12T06:03:35.267Z,680.00
2022-10-12T06:04:34.925Z,728.00
2022-10-12T06:05:34.946Z,792.00
2022-10-12T06:06:34.974Z,852.00
2022-10-12T06:07:34.995Z,908.00
2022-10-12T06:08:35.017Z,964.00
2022-10-12T06:09:35.038Z,1024.00
2022-10-12T06:10:35.244Z,1088.00
2022-10-12T06:11:36.490Z,1156.00
2022-10-12T06:12:35.287Z,1228.00
2022-10-12T06:13:35.129Z,1276.00
2022-10-12T06:14:35.153Z,1312.00
2022-10-12T06:15:35.175Z,1356.00
2022-10-12T06:16:35.199Z,1412.00
2022-10-12T06:17:35.220Z,1484.00
2022-10-12T06:18:35.247Z,1572.00
2022-10-12T06:19:35.266Z,1636.00
2022-10-12T06:20:35.290Z,1660.00
2022-10-12T06:21:35.317Z,1680.00
2022-10-12T06:22:35.648Z,1704.00
2022-10-12T06:23:35.357Z,1728.00
2022-10-12T06:24:35.381Z,1736.00
2022-10-12T06:25:35.403Z,1740.00
2022-10-12T06:26:35.445Z,1740.00
2022-10-12T06:27:35.449Z,1756.00
2022-10-12T06:28:35.548Z,1772.00
2022-10-12T06:29:35.494Z,1792.00
2022-10-12T06:30:35.519Z,1808.00
2022-10-12T06:31:35.545Z,1828.00
2022-10-12T06:32:35.917Z,1848.00
2022-10-12T06:33:35.585Z,1860.00
2022-10-12T06:34:35.613Z,1852.00
2022-10-12T06:35:35.634Z,1856.00
2022-10-12T06:36:35.657Z,1876.00
2022-10-12T06:37:49.545Z,1880.00
2022-10-12T06:38:35.702Z,1908.00
2022-10-12T06:39:35.727Z,1948.00
2022-10-12T06:40:35.751Z,2004.00
2022-10-12T06:41:35.771Z,2080.00
2022-10-12T06:42:36.168Z,2180.00
2022-10-12T06:43:35.816Z,2284.00
2022-10-12T06:44:35.843Z,2432.00
2022-10-12T06:45:35.863Z,2524.00
2022-10-12T06:46:35.888Z,2580.00
2022-10-12T06:47:35.910Z,2644.00
2022-10-12T06:48:35.935Z,2712.00
2022-10-12T06:49:35.954Z,2780.00
2022-10-12T06:50:35.981Z,2832.00
2022-10-12T06:51:36.000Z,2876.00
2022-10-12T06:52:36.332Z,2900.00
2022-10-12T06:53:36.047Z,2916.00
2022-10-12T06:54:36.071Z,2916.00
2022-10-12T06:55:36.094Z,2888.00
2022-10-12T06:56:36.119Z,2884.00
2022-10-12T06:57:36.140Z,2928.00
2022-10-12T06:58:36.185Z,2948.00
2022-10-12T06:59:36.188Z,2952.00
2022-10-12T07:00:36.237Z,2944.00
2022-10-12T07:01:36.285Z,2932.00
2022-10-12T07:02:36.649Z,2924.00
2022-10-12T07:03:36.280Z,2904.00
2022-10-12T07:04:36.307Z,2864.00
2022-10-12T07:05:36.324Z,2848.00
2022-10-12T07:06:36.350Z,2832.00
2022-10-12T07:07:36.373Z,2856.00
2022-10-12T07:08:36.396Z,2888.00
2022-10-12T07:09:36.419Z,2892.00
2022-10-12T07:10:36.445Z,2904.00
2022-10-12T07:11:36.465Z,2896.00
2022-10-12T07:12:36.784Z,2892.00
2022-10-12T07:13:36.511Z,2884.00
2022-10-12T07:14:36.558Z,2872.00
2022-10-12T07:15:36.558Z,2876.00
2022-10-12T07:16:36.585Z,2868.00
2022-10-12T07:17:36.978Z,2860.00
2022-10-12T07:18:36.636Z,2852.00
2022-10-12T07:19:36.653Z,2848.00
2022-10-12T07:20:36.679Z,2840.00
2022-10-12T07:21:36.699Z,2840.00
2022-10-12T07:22:36.724Z,2840.00
2022-10-12T07:23:36.747Z,2848.00
2022-10-12T07:24:36.771Z,2856.00
2022-10-12T07:25:36.794Z,2864.00
2022-10-12T07:26:36.817Z,2868.00
2022-10-12T07:27:37.108Z,2892.00
2022-10-12T07:28:36.929Z,2932.00
2022-10-12T07:29:36.888Z,2996.00
2022-10-12T07:45:51.174Z,3656.00
2022-10-12T07:46:51.179Z,3716.00
2022-10-12T07:47:51.202Z,3772.00
2022-10-12T07:48:51.227Z,3816.00
2022-10-12T07:49:51.255Z,3848.00
2022-10-12T07:50:51.275Z,3876.00
2022-10-12T07:51:51.297Z,3896.00
2022-10-12T07:52:51.324Z,3912.00
2022-10-12T07:53:51.349Z,3932.00
2022-10-12T07:54:51.372Z,3960.00
2022-10-12T07:55:51.395Z,3992.00
2022-10-12T07:56:51.419Z,4012.00
2022-10-12T07:57:51.444Z,4036.00
2022-10-12T07:58:51.467Z,4048.00
2022-10-12T07:59:51.490Z,4060.00
2022-10-12T08:00:51.516Z,4064.00
2022-10-12T08:01:51.719Z,4048.00
2022-10-12T08:02:51.564Z,3968.00
2022-10-12T08:03:51.585Z,3768.00
2022-10-12T08:04:51.612Z,3552.00
2022-10-12T08:05:51.638Z,3796.00
2022-10-12T08:06:51.665Z,3900.00
2022-10-12T08:07:51.685Z,3916.00
2022-10-12T08:08:51.709Z,3932.00
2022-10-12T08:09:51.738Z,3924.00
2022-10-12T08:10:51.758Z,3900.00
2022-10-12T08:11:51.782Z,3892.00
2022-10-12T08:12:52.345Z,3864.00
2022-10-12T08:13:51.829Z,3840.00
2022-10-12T08:14:51.855Z,3828.00
2022-10-12T08:15:51.879Z,3756.00
2022-10-12T08:16:51.908Z,3772.00
2022-10-12T08:17:51.946Z,3764.00
2022-10-12T08:18:51.953Z,3788.00
2022-10-12T08:19:51.977Z,3828.00
2022-10-12T08:20:52.003Z,3852.00
2022-10-12T08:21:52.028Z,3864.00
2022-10-12T08:22:52.053Z,3876.00
2022-10-12T08:23:52.075Z,3868.00
2022-10-12T08:24:52.102Z,3868.00
2022-10-12T08:25:52.731Z,3852.00
2022-10-12T08:26:52.152Z,3820.00
2022-10-12T08:27:52.174Z,3812.00
2022-10-12T08:28:52.327Z,3812.00
2022-10-12T08:29:52.227Z,3816.00
2022-10-12T08:30:52.249Z,3836.00
2022-10-12T08:31:52.273Z,3820.00
2022-10-12T08:32:52.303Z,3740.00
2022-10-12T08:33:52.347Z,3580.00
2022-10-12T08:34:52.349Z,3520.00
2022-10-12T08:35:52.372Z,3676.00
2022-10-12T08:36:52.399Z,3868.00
2022-10-12T08:37:52.422Z,4080.00
2022-10-12T08:38:52.447Z,3956.00
2022-10-12T08:39:52.470Z,3784.00
2022-10-12T08:40:52.498Z,4096.00
2022-10-12T08:41:52.522Z,4284.00
2022-10-12T08:42:52.549Z,4400.00
2022-10-12T08:43:52.571Z,4524.00
2022-10-12T08:44:52.599Z,4628.00
2022-10-12T08:45:52.622Z,4712.00
2022-10-12T08:46:52.647Z,4680.00
2022-10-12T08:47:52.670Z,4772.00
2022-10-12T08:48:52.698Z,4900.00
2022-10-12T08:49:52.843Z,5084.00
2022-10-12T08:50:52.831Z,4800.00
2022-10-12T08:51:52.770Z,4632.00
2022-10-12T08:52:52.798Z,4632.00
2022-10-12T08:53:52.921Z,4712.00
2022-10-12T08:54:52.896Z,4792.00
2022-10-12T08:55:52.923Z,4856.00
2022-10-12T08:56:52.898Z,4992.00
2022-10-12T08:57:52.921Z,5040.00
2022-10-12T08:58:52.951Z,5012.00
2022-10-12T08:59:52.972Z,5168.00
2022-10-12T09:00:53.013Z,5108.00
2022-10-12T09:01:53.096Z,5392.00
2022-10-12T09:02:53.049Z,5168.00
2022-10-12T09:03:53.074Z,5048.00
2022-10-12T09:04:53.101Z,5256.00
2022-10-12T09:05:53.153Z,5364.00
2022-10-12T09:06:53.151Z,5564.00
2022-10-12T09:07:53.177Z,5300.00
2022-10-12T09:08:53.208Z,4940.00
2022-10-12T09:09:53.229Z,4956.00
2022-10-12T09:10:53.254Z,5120.00
2022-10-12T09:11:53.277Z,5320.00
2022-10-12T09:12:53.307Z,5488.00
2022-10-12T09:13:53.330Z,5704.00
2022-10-12T09:14:53.357Z,5672.00
2022-10-12T09:15:53.383Z,5592.00
2022-10-12T09:16:53.409Z,5612.00
2022-10-12T09:17:53.440Z,5740.00
2022-10-12T09:18:53.461Z,5740.00
2022-10-12T09:19:53.489Z,5676.00
2022-10-12T09:20:53.510Z,5668.00
2022-10-12T09:21:53.558Z,5812.00
2022-10-12T09:22:53.614Z,5812.00
2022-10-12T09:23:53.588Z,5696.00
2022-10-12T09:24:53.616Z,5560.00
2022-10-12T09:25:53.641Z,5596.00
2022-10-12T09:26:53.669Z,5456.00
2022-10-12T09:27:53.693Z,5272.00
2022-10-12T09:28:53.805Z,5200.00
2022-10-12T09:29:53.745Z,5308.00
2022-10-12T09:30:53.771Z,5396.00
2022-10-12T09:31:53.798Z,5236.00
2022-10-12T09:32:53.828Z,5280.00
2022-10-12T09:33:53.851Z,5444.00
2022-10-12T09:34:53.877Z,5812.00
2022-10-12T09:35:53.903Z,6008.00
2022-10-12T09:36:53.934Z,6208.00
2022-10-12T09:37:53.975Z,6748.00
2022-10-12T09:38:53.985Z,6912.00
2022-10-12T09:39:54.009Z,7012.00
2022-10-12T09:40:54.042Z,7100.00
2022-10-12T09:41:54.063Z,7236.00
2022-10-12T09:42:54.088Z,7160.00
2022-10-12T09:43:54.124Z,7220.00
2022-10-12T09:44:54.145Z,7428.00
2022-10-12T09:45:54.171Z,7524.00
2022-10-12T09:46:54.196Z,7632.00
2022-10-12T09:47:54.223Z,7840.00
2022-10-12T09:48:54.250Z,8052.00
2022-10-12T09:49:54.276Z,8236.00
2022-10-12T09:50:54.303Z,8396.00
2022-10-12T09:51:54.330Z,8460.00
2022-10-12T09:52:54.359Z,8264.00
2022-10-12T09:53:57.628Z,8248.00
2022-10-12T09:54:54.413Z,8372.00
2022-10-12T09:55:54.438Z,8472.00
2022-10-12T09:56:54.467Z,8460.00
2022-10-12T09:57:54.492Z,8372.00
2022-10-12T09:58:54.519Z,8304.00
2022-10-12T09:59:54.545Z,8240.00
2022-10-12T10:00:54.576Z,8288.00
2022-10-12T10:01:54.650Z,8208.00
2022-10-12T10:02:54.629Z,8048.00
2022-10-12T10:03:54.657Z,8036.00
2022-10-12T10:04:54.687Z,8032.00
2022-10-12T10:05:54.711Z,8340.00
2022-10-12T10:06:54.739Z,8520.00
2022-10-12T10:07:54.764Z,9068.00
2022-10-12T10:08:54.795Z,9804.00
2022-10-12T10:09:54.892Z,10244.00
2022-10-12T10:10:54.849Z,10452.00
2022-10-12T10:11:54.875Z,10592.00
2022-10-12T10:12:58.941Z,10760.00
2022-10-12T10:13:54.930Z,11096.00
2022-10-12T10:14:54.958Z,10956.00
2022-10-12T10:15:54.984Z,10852.00
2022-10-12T10:16:56.428Z,10780.00
2022-10-12T10:17:55.040Z,10660.00
2022-10-12T10:18:55.068Z,10380.00
2022-10-12T10:19:55.095Z,10264.00
2022-10-12T10:20:55.123Z,10324.00
2022-10-12T10:21:55.151Z,10340.00
2022-10-12T10:22:55.186Z,10320.00
2022-10-12T10:23:55.207Z,10316.00
2022-10-12T10:24:59.091Z,10492.00
2022-10-12T10:25:55.306Z,10412.00
2022-10-12T10:26:58.722Z,10328.00
2022-10-12T10:27:55.319Z,10180.00
2022-10-12T10:28:55.392Z,9764.00
2022-10-12T10:30:04.838Z,9448.00
2022-10-12T10:30:55.405Z,9196.00
2022-10-12T10:31:55.431Z,9260.00
2022-10-12T10:32:55.462Z,9232.00
2022-10-12T10:33:55.488Z,8756.00
2022-10-12T10:34:55.519Z,8292.00
2022-10-12T10:35:55.545Z,8412.00
2022-10-12T10:36:55.575Z,8612.00
2022-10-12T10:37:55.602Z,8352.00
2022-10-12T10:38:55.635Z,8308.00
2022-10-12T10:39:55.658Z,8156.00
2022-10-12T10:40:55.688Z,8188.00
2022-10-12T10:41:55.809Z,7788.00
2022-10-12T10:42:55.744Z,7616.00
2022-10-12T10:43:55.770Z,7800.00
2022-10-12T10:44:55.803Z,7692.00
2022-10-12T10:45:55.834Z,7636.00
2022-10-12T10:46:55.857Z,8176.00
2022-10-12T10:47:55.884Z,7828.00
2022-10-12T10:48:55.915Z,7856.00
2022-10-12T10:49:56.005Z,8044.00
2022-10-12T10:50:55.971Z,7980.00
2022-10-12T10:51:55.999Z,7876.00
2022-10-12T10:52:56.078Z,7704.00
2022-10-12T10:53:56.072Z,7264.00
2022-10-12T10:54:56.086Z,7040.00
2022-10-12T10:55:56.114Z,7016.00
2022-10-12T10:56:56.143Z,7100.00
2022-10-12T10:57:56.188Z,7072.00
2022-10-12T10:58:56.202Z,7180.00
2022-10-12T10:59:56.228Z,7208.00
2022-10-12T11:00:56.257Z,7292.00
2022-10-12T11:01:56.370Z,7164.00
2022-10-12T11:02:56.314Z,7220.00
2022-10-12T11:03:56.341Z,7064.00
2022-10-12T11:04:56.372Z,7028.00
2022-10-12T11:05:56.403Z,6888.00
2022-10-12T11:06:56.431Z,6908.00
2022-10-12T11:07:56.469Z,6588.00
2022-10-12T11:08:56.487Z,6628.00
2022-10-12T11:09:56.514Z,6728.00
2022-10-12T11:10:56.544Z,6868.00
2022-10-12T11:11:56.575Z,7228.00
2022-10-12T11:12:56.608Z,7720.00
2022-10-12T11:13:56.649Z,8148.00
2022-10-12T11:14:56.663Z,8312.00
2022-10-12T11:15:56.687Z,8196.00
2022-10-12T11:16:56.719Z,7924.00
2022-10-12T11:17:56.747Z,7872.00
2022-10-12T11:18:56.775Z,8244.00
2022-10-12T11:19:56.803Z,8512.00
2022-10-12T11:20:56.838Z,8628.00
2022-10-12T11:21:56.892Z,8576.00
2022-10-12T11:22:56.892Z,8564.00
2022-10-12T11:23:56.918Z,8648.00
2022-10-12T11:24:56.952Z,8520.00
2022-10-12T11:25:56.978Z,8068.00
2022-10-12T11:26:57.009Z,7560.00
2022-10-12T11:27:57.038Z,7256.00
2022-10-12T11:28:57.169Z,7020.00
2022-10-12T11:30:08.350Z,6712.00
2022-10-12T11:30:57.124Z,6260.00
2022-10-12T11:31:57.152Z,5948.00
2022-10-12T11:32:57.181Z,6028.00
2022-10-12T11:33:57.209Z,6272.00
2022-10-12T11:34:57.240Z,6112.00
2022-10-12T11:35:57.269Z,5460.00
2022-10-12T11:37:19.094Z,5156.00
2022-10-12T11:37:57.326Z,5220.00
2022-10-12T11:38:57.355Z,5408.00
2022-10-12T11:39:57.382Z,5472.00
2022-10-12T11:41:13.883Z,5312.00
2022-10-12T11:42:20.276Z,4964.00
2022-10-12T11:42:57.471Z,4972.00
2022-10-12T11:43:57.499Z,5268.00
2022-10-12T11:44:57.531Z,5576.00
2022-10-12T11:45:57.581Z,5604.00
2022-10-12T11:46:57.587Z,5612.00
2022-10-12T11:47:57.621Z,5024.00
2022-10-12T11:48:57.645Z,4820.00
2022-10-12T11:49:57.677Z,4828.00
2022-10-12T11:51:02.858Z,4628.00
2022-10-12T11:51:57.731Z,4388.00
2022-10-12T11:52:57.760Z,4256.00
2022-10-12T11:53:57.789Z,4272.00
2022-10-12T11:54:57.818Z,4328.00
2022-10-12T11:55:57.845Z,4428.00
2022-10-12T11:56:57.878Z,4548.00
2022-10-12T11:57:57.904Z,4596.00
2022-10-12T11:59:02.000Z,4512.00
2022-10-12T11:59:57.961Z,4488.00
2022-10-12T12:00:57.989Z,4560.00
2022-10-12T12:01:58.039Z,4640.00
2022-10-12T12:02:58.046Z,4792.00
2022-10-12T12:03:58.133Z,4912.00
2022-10-12T12:04:58.104Z,5140.00
2022-10-12T12:05:58.135Z,5264.00
2022-10-12T12:06:58.161Z,5424.00
2022-10-12T12:07:58.192Z,5564.00
2022-10-12T12:08:58.219Z,5776.00
2022-10-12T12:09:58.249Z,5896.00
2022-10-12T12:10:58.276Z,6020.00
2022-10-12T12:11:58.308Z,6264.00
2022-10-12T12:12:58.334Z,6452.00
2022-10-12T12:13:58.365Z,6564.00
2022-10-12T12:14:58.392Z,6360.00
2022-10-12T12:15:58.422Z,6188.00
2022-10-12T12:16:58.450Z,6092.00
2022-10-12T12:17:58.500Z,6000.00
2022-10-12T12:18:58.506Z,5948.00
2022-10-12T12:19:58.535Z,5924.00
2022-10-12T12:20:58.564Z,5968.00
2022-10-12T12:21:58.596Z,5960.00
2022-10-12T12:22:58.621Z,6004.00
2022-10-12T12:23:58.655Z,6192.00
2022-10-12T12:24:58.679Z,6116.00
2022-10-12T12:25:58.710Z,6124.00
2022-10-12T12:26:58.737Z,6012.00
2022-10-12T12:27:58.768Z,6040.00
2022-10-12T12:28:58.835Z,6000.00
2022-10-12T12:29:58.826Z,5832.00
2022-10-12T12:30:58.852Z,5640.00
2022-10-12T12:31:58.885Z,5576.00
2022-10-12T12:32:58.911Z,5520.00
2022-10-12T12:33:58.962Z,5452.00
2022-10-12T12:35:00.662Z,5340.00
2022-10-12T12:35:59.010Z,5300.00
2022-10-12T12:36:59.027Z,5168.00
2022-10-12T12:37:59.057Z,5000.00
2022-10-12T12:38:59.087Z,4900.00
2022-10-12T12:39:59.113Z,4924.00
2022-10-12T12:40:59.141Z,4932.00
2022-10-12T12:42:01.901Z,4908.00
2022-10-12T12:42:59.198Z,5116.00
2022-10-12T12:43:59.228Z,5004.00
2022-10-12T12:44:59.258Z,5176.00
2022-10-12T12:45:59.288Z,5056.00
2022-10-12T12:46:59.315Z,4940.00
2022-10-12T12:47:59.402Z,4952.00
2022-10-12T12:48:59.373Z,5000.00
2022-10-12T12:49:59.420Z,5088.00
2022-10-12T12:50:59.511Z,5364.00
2022-10-12T12:51:59.460Z,5568.00
2022-10-12T12:52:59.487Z,5680.00
2022-10-12T12:53:59.517Z,5628.00
2022-10-12T12:54:59.546Z,5732.00
2022-10-12T12:55:59.575Z,5728.00
2022-10-12T12:56:59.601Z,5764.00
2022-10-12T12:57:59.633Z,5832.00
2022-10-12T12:58:59.660Z,5924.00
2022-10-12T12:59:59.691Z,6008.00
2022-10-12T13:00:59.767Z,6088.00
2022-10-12T13:01:59.796Z,6172.00
2022-10-12T13:02:59.776Z,6260.00
2022-10-12T13:03:59.805Z,6356.00
2022-10-12T13:04:59.832Z,6484.00
2022-10-12T13:05:59.885Z,6620.00
2022-10-12T13:06:59.891Z,6732.00
2022-10-12T13:08:04.062Z,6864.00
2022-10-12T13:08:59.950Z,7044.00
2022-10-12T13:09:59.980Z,7244.00
2022-10-12T13:11:00.099Z,7292.00
2022-10-12T13:12:00.035Z,7292.00
2022-10-12T13:13:00.064Z,7244.00
2022-10-12T13:14:00.098Z,7432.00
2022-10-12T13:15:00.145Z,7452.00
2022-10-12T13:16:00.154Z,7268.00
2022-10-12T13:18:00.220Z,6996.00
2022-10-12T13:19:00.242Z,6992.00